sensor_id;sensor_type;location;lat;lon;timestamp;P1;durP1;ratioP1;P2;durP2;ratioP2
62419;SDS011;48460;51.616;5.426;2023-05-13T00:01:27;11.57;;;7.50;;
62419;SDS011;48460;51.616;5.426;2023-05-13T00:10:47;10.75;;;7.07;;
62419;SDS011;48460;51.616;5.426;2023-05-13T00:14:05;10.73;;;6.72;;
62419;SDS011;48460;51.616;5.426;2023-05-13T00:16:46;9.73;;;6.85;;
62419;SDS011;48460;51.616;5.426;2023-05-13T00:19:55;8.88;;;6.82;;
62419;SDS011;48460;51.616;5.426;2023-05-13T00:22:52;9.20;;;7.05;;
62419;SDS011;48460;51.616;5.426;2023-05-13T00:25:41;14.27;;;7.20;;
62419;SDS011;48460;51.616;5.426;2023-05-13T00:28:52;9.05;;;6.55;;
62419;SDS011;48460;51.616;5.426;2023-05-13T00:31:20;12.20;;;7.07;;
62419;SDS011;48460;51.616;5.426;2023-05-13T00:38:03;10.07;;;6.60;;
62419;SDS011;48460;51.616;5.426;2023-05-13T00:40:48;11.60;;;6.78;;
62419;SDS011;48460;51.616;5.426;2023-05-13T00:47:19;11.55;;;7.32;;
62419;SDS011;48460;51.616;5.426;2023-05-13T00:50:13;15.35;;;7.20;;
62419;SDS011;48460;51.616;5.426;2023-05-13T00:56:25;14.07;;;7.50;;
62419;SDS011;48460;51.616;5.426;2023-05-13T00:59:00;12.10;;;7.55;;
62419;SDS011;48460;51.616;5.426;2023-05-13T01:16:20;15.10;;;8.55;;
62419;SDS011;48460;51.616;5.426;2023-05-13T01:32:19;11.40;;;7.57;;
62419;SDS011;48460;51.616;5.426;2023-05-13T01:41:49;10.52;;;7.60;;
62419;SDS011;48460;51.616;5.426;2023-05-13T01:54:02;10.60;;;8.23;;
62419;SDS011;48460;51.616;5.426;2023-05-13T01:56:33;10.68;;;8.27;;
62419;SDS011;48460;51.616;5.426;2023-05-13T02:09:16;11.32;;;7.63;;
62419;SDS011;48460;51.616;5.426;2023-05-13T02:11:44;14.80;;;8.35;;
62419;SDS011;48460;51.616;5.426;2023-05-13T02:17:43;14.93;;;8.23;;
62419;SDS011;48460;51.616;5.426;2023-05-13T02:20:48;13.52;;;8.18;;
62419;SDS011;48460;51.616;5.426;2023-05-13T02:23:29;10.45;;;8.13;;
62419;SDS011;48460;51.616;5.426;2023-05-13T02:29:25;14.05;;;8.55;;
62419;SDS011;48460;51.616;5.426;2023-05-13T02:31:53;14.10;;;8.05;;
62419;SDS011;48460;51.616;5.426;2023-05-13T02:38:03;9.88;;;7.88;;
62419;SDS011;48460;51.616;5.426;2023-05-13T02:44:38;12.40;;;7.60;;
62419;SDS011;48460;51.616;5.426;2023-05-13T02:47:12;11.52;;;7.65;;
62419;SDS011;48460;51.616;5.426;2023-05-13T02:49:48;10.77;;;7.95;;
62419;SDS011;48460;51.616;5.426;2023-05-13T02:52:25;12.05;;;8.25;;
62419;SDS011;48460;51.616;5.426;2023-05-13T02:55:09;9.48;;;7.95;;
62419;SDS011;48460;51.616;5.426;2023-05-13T03:00:58;11.88;;;7.63;;
62419;SDS011;48460;51.616;5.426;2023-05-13T03:04:00;13.13;;;7.93;;
62419;SDS011;48460;51.616;5.426;2023-05-13T03:06:58;11.77;;;7.90;;
62419;SDS011;48460;51.616;5.426;2023-05-13T03:09:58;11.50;;;8.05;;
62419;SDS011;48460;51.616;5.426;2023-05-13T03:12:37;12.98;;;8.35;;
62419;SDS011;48460;51.616;5.426;2023-05-13T03:15:20;11.00;;;8.48;;
62419;SDS011;48460;51.616;5.426;2023-05-13T03:17:57;12.35;;;8.63;;
62419;SDS011;48460;51.616;5.426;2023-05-13T03:20:34;14.73;;;8.48;;
62419;SDS011;48460;51.616;5.426;2023-05-13T03:23:15;14.85;;;7.82;;
62419;SDS011;48460;51.616;5.426;2023-05-13T03:25:43;12.93;;;8.55;;
62419;SDS011;48460;51.616;5.426;2023-05-13T03:28:44;13.15;;;8.57;;
62419;SDS011;48460;51.616;5.426;2023-05-13T03:31:27;12.40;;;8.77;;
62419;SDS011;48460;51.616;5.426;2023-05-13T03:34:17;14.32;;;8.77;;
62419;SDS011;48460;51.616;5.426;2023-05-13T03:36:55;15.95;;;9.05;;
62419;SDS011;48460;51.616;5.426;2023-05-13T03:39:51;12.98;;;9.10;;
62419;SDS011;48460;51.616;5.426;2023-05-13T03:43:03;15.32;;;8.75;;
62419;SDS011;48460;51.616;5.426;2023-05-13T03:46:01;13.35;;;8.88;;
62419;SDS011;48460;51.616;5.426;2023-05-13T03:48:51;22.70;;;9.45;;
62419;SDS011;48460;51.616;5.426;2023-05-13T03:51:26;11.88;;;8.77;;
62419;SDS011;48460;51.616;5.426;2023-05-13T03:54:14;12.38;;;8.80;;
62419;SDS011;48460;51.616;5.426;2023-05-13T03:56:53;11.95;;;8.82;;
62419;SDS011;48460;51.616;5.426;2023-05-13T03:59:28;13.15;;;9.10;;
62419;SDS011;48460;51.616;5.426;2023-05-13T04:02:24;14.98;;;9.15;;
62419;SDS011;48460;51.616;5.426;2023-05-13T04:04:58;12.80;;;8.63;;
62419;SDS011;48460;51.616;5.426;2023-05-13T04:07:29;13.63;;;9.43;;
62419;SDS011;48460;51.616;5.426;2023-05-13T04:10:01;14.85;;;9.32;;
62419;SDS011;48460;51.616;5.426;2023-05-13T04:12:26;15.57;;;9.57;;
62419;SDS011;48460;51.616;5.426;2023-05-13T04:18:14;13.20;;;9.07;;
62419;SDS011;48460;51.616;5.426;2023-05-13T04:20:42;15.32;;;10.05;;
62419;SDS011;48460;51.616;5.426;2023-05-13T04:23:10;13.10;;;9.52;;
62419;SDS011;48460;51.616;5.426;2023-05-13T04:25:50;14.50;;;9.45;;
62419;SDS011;48460;51.616;5.426;2023-05-13T04:28:31;13.80;;;10.07;;
62419;SDS011;48460;51.616;5.426;2023-05-13T04:31:14;15.70;;;9.73;;
62419;SDS011;48460;51.616;5.426;2023-05-13T04:33:45;15.77;;;9.63;;
62419;SDS011;48460;51.616;5.426;2023-05-13T04:36:27;22.08;;;10.05;;
62419;SDS011;48460;51.616;5.426;2023-05-13T04:38:55;16.73;;;9.60;;
62419;SDS011;48460;51.616;5.426;2023-05-13T04:41:21;14.77;;;9.65;;
62419;SDS011;48460;51.616;5.426;2023-05-13T04:44:13;17.55;;;10.02;;
62419;SDS011;48460;51.616;5.426;2023-05-13T04:46:41;14.05;;;9.70;;
62419;SDS011;48460;51.616;5.426;2023-05-13T04:49:23;12.57;;;9.73;;
62419;SDS011;48460;51.616;5.426;2023-05-13T05:05:07;15.73;;;10.30;;
62419;SDS011;48460;51.616;5.426;2023-05-13T05:11:06;17.80;;;10.05;;
62419;SDS011;48460;51.616;5.426;2023-05-13T05:16:41;21.40;;;10.93;;
62419;SDS011;48460;51.616;5.426;2023-05-13T05:19:47;16.40;;;10.20;;
62419;SDS011;48460;51.616;5.426;2023-05-13T05:22:23;13.75;;;10.73;;
62419;SDS011;48460;51.616;5.426;2023-05-13T05:25:54;19.05;;;10.00;;
62419;SDS011;48460;51.616;5.426;2023-05-13T05:28:55;15.80;;;10.38;;
62419;SDS011;48460;51.616;5.426;2023-05-13T05:32:06;16.45;;;10.85;;
62419;SDS011;48460;51.616;5.426;2023-05-13T05:34:32;17.67;;;11.02;;
62419;SDS011;48460;51.616;5.426;2023-05-13T05:37:01;13.88;;;10.88;;
62419;SDS011;48460;51.616;5.426;2023-05-13T05:40:01;16.95;;;11.05;;
62419;SDS011;48460;51.616;5.426;2023-05-13T05:43:17;20.75;;;11.20;;
62419;SDS011;48460;51.616;5.426;2023-05-13T05:45:51;15.30;;;10.75;;
62419;SDS011;48460;51.616;5.426;2023-05-13T05:48:17;16.50;;;11.45;;
62419;SDS011;48460;51.616;5.426;2023-05-13T05:50:46;16.50;;;10.90;;
62419;SDS011;48460;51.616;5.426;2023-05-13T05:53:34;16.13;;;10.43;;
62419;SDS011;48460;51.616;5.426;2023-05-13T05:59:52;15.25;;;10.75;;
62419;SDS011;48460;51.616;5.426;2023-05-13T06:03:00;20.00;;;10.30;;
62419;SDS011;48460;51.616;5.426;2023-05-13T06:05:26;14.90;;;10.50;;
62419;SDS011;48460;51.616;5.426;2023-05-13T06:39:11;20.67;;;10.57;;
62419;SDS011;48460;51.616;5.426;2023-05-13T06:52:16;18.05;;;10.95;;
62419;SDS011;48460;51.616;5.426;2023-05-13T06:54:47;16.02;;;10.45;;
62419;SDS011;48460;51.616;5.426;2023-05-13T06:57:15;16.75;;;10.95;;
62419;SDS011;48460;51.616;5.426;2023-05-13T07:00:04;17.15;;;10.75;;
62419;SDS011;48460;51.616;5.426;2023-05-13T07:09:18;20.98;;;10.52;;
62419;SDS011;48460;51.616;5.426;2023-05-13T07:11:46;18.25;;;10.13;;
62419;SDS011;48460;51.616;5.426;2023-05-13T07:14:17;16.52;;;10.43;;
62419;SDS011;48460;51.616;5.426;2023-05-13T07:17:25;16.67;;;10.48;;
62419;SDS011;48460;51.616;5.426;2023-05-13T07:19:55;17.40;;;11.10;;
62419;SDS011;48460;51.616;5.426;2023-05-13T07:22:21;13.55;;;10.40;;
62419;SDS011;48460;51.616;5.426;2023-05-13T07:24:51;16.92;;;11.50;;
62419;SDS011;48460;51.616;5.426;2023-05-13T07:27:24;15.10;;;10.55;;
62419;SDS011;48460;51.616;5.426;2023-05-13T07:29:54;13.00;;;10.48;;
62419;SDS011;48460;51.616;5.426;2023-05-13T07:32:22;16.88;;;10.80;;
62419;SDS011;48460;51.616;5.426;2023-05-13T07:34:48;15.15;;;10.30;;
62419;SDS011;48460;51.616;5.426;2023-05-13T07:37:16;18.17;;;10.75;;
62419;SDS011;48460;51.616;5.426;2023-05-13T07:39:47;16.00;;;10.10;;
62419;SDS011;48460;51.616;5.426;2023-05-13T07:42:16;17.35;;;10.60;;
62419;SDS011;48460;51.616;5.426;2023-05-13T07:44:44;19.67;;;10.18;;
62419;SDS011;48460;51.616;5.426;2023-05-13T07:47:17;18.15;;;10.85;;
62419;SDS011;48460;51.616;5.426;2023-05-13T07:49:51;14.20;;;10.15;;
62419;SDS011;48460;51.616;5.426;2023-05-13T07:52:16;15.60;;;10.05;;
62419;SDS011;48460;51.616;5.426;2023-05-13T07:54:45;15.38;;;9.70;;
62419;SDS011;48460;51.616;5.426;2023-05-13T07:57:10;14.70;;;9.65;;
62419;SDS011;48460;51.616;5.426;2023-05-13T07:59:37;18.90;;;10.52;;
62419;SDS011;48460;51.616;5.426;2023-05-13T08:02:03;16.90;;;11.10;;
62419;SDS011;48460;51.616;5.426;2023-05-13T08:04:28;13.90;;;10.27;;
62419;SDS011;48460;51.616;5.426;2023-05-13T08:06:54;16.33;;;10.82;;
62419;SDS011;48460;51.616;5.426;2023-05-13T08:09:20;18.10;;;10.70;;
62419;SDS011;48460;51.616;5.426;2023-05-13T08:11:48;17.52;;;10.50;;
62419;SDS011;48460;51.616;5.426;2023-05-13T08:14:40;14.38;;;10.25;;
62419;SDS011;48460;51.616;5.426;2023-05-13T08:17:08;17.92;;;10.70;;
62419;SDS011;48460;51.616;5.426;2023-05-13T08:19:34;16.95;;;10.45;;
62419;SDS011;48460;51.616;5.426;2023-05-13T08:22:12;14.63;;;10.55;;
62419;SDS011;48460;51.616;5.426;2023-05-13T08:24:38;12.95;;;10.43;;
62419;SDS011;48460;51.616;5.426;2023-05-13T08:27:09;17.15;;;10.77;;
62419;SDS011;48460;51.616;5.426;2023-05-13T08:29:39;20.60;;;11.00;;
62419;SDS011;48460;51.616;5.426;2023-05-13T08:32:07;20.30;;;11.00;;
62419;SDS011;48460;51.616;5.426;2023-05-13T08:34:36;16.85;;;10.75;;
62419;SDS011;48460;51.616;5.426;2023-05-13T08:37:07;18.10;;;11.13;;
62419;SDS011;48460;51.616;5.426;2023-05-13T08:39:33;12.95;;;10.45;;
62419;SDS011;48460;51.616;5.426;2023-05-13T08:42:02;14.10;;;9.70;;
62419;SDS011;48460;51.616;5.426;2023-05-13T08:44:39;17.85;;;10.43;;
62419;SDS011;48460;51.616;5.426;2023-05-13T08:47:20;12.48;;;9.38;;
62419;SDS011;48460;51.616;5.426;2023-05-13T08:49:54;16.08;;;9.65;;
62419;SDS011;48460;51.616;5.426;2023-05-13T08:52:24;15.07;;;9.60;;
62419;SDS011;48460;51.616;5.426;2023-05-13T08:54:51;14.60;;;9.60;;
62419;SDS011;48460;51.616;5.426;2023-05-13T08:57:22;14.75;;;9.23;;
62419;SDS011;48460;51.616;5.426;2023-05-13T08:59:48;16.92;;;9.27;;
62419;SDS011;48460;51.616;5.426;2023-05-13T09:02:13;15.27;;;9.63;;
62419;SDS011;48460;51.616;5.426;2023-05-13T09:04:39;12.80;;;9.20;;
62419;SDS011;48460;51.616;5.426;2023-05-13T09:07:06;13.57;;;9.70;;
62419;SDS011;48460;51.616;5.426;2023-05-13T09:09:35;18.90;;;9.30;;
62419;SDS011;48460;51.616;5.426;2023-05-13T09:12:01;17.70;;;9.60;;
62419;SDS011;48460;51.616;5.426;2023-05-13T09:14:29;11.30;;;9.07;;
62419;SDS011;48460;51.616;5.426;2023-05-13T09:16:58;16.05;;;9.75;;
62419;SDS011;48460;51.616;5.426;2023-05-13T09:19:25;15.90;;;9.60;;
62419;SDS011;48460;51.616;5.426;2023-05-13T09:21:54;14.23;;;9.05;;
62419;SDS011;48460;51.616;5.426;2023-05-13T09:24:21;16.85;;;8.75;;
62419;SDS011;48460;51.616;5.426;2023-05-13T09:27:00;14.50;;;9.43;;
62419;SDS011;48460;51.616;5.426;2023-05-13T09:29:26;11.73;;;9.00;;
62419;SDS011;48460;51.616;5.426;2023-05-13T09:31:58;16.70;;;8.93;;
62419;SDS011;48460;51.616;5.426;2023-05-13T09:34:33;15.90;;;9.52;;
62419;SDS011;48460;51.616;5.426;2023-05-13T09:39:26;14.27;;;8.52;;
62419;SDS011;48460;51.616;5.426;2023-05-13T09:41:52;16.10;;;9.38;;
62419;SDS011;48460;51.616;5.426;2023-05-13T09:44:20;13.77;;;8.18;;
62419;SDS011;48460;51.616;5.426;2023-05-13T09:46:46;11.95;;;8.90;;
62419;SDS011;48460;51.616;5.426;2023-05-13T09:49:14;15.98;;;9.25;;
62419;SDS011;48460;51.616;5.426;2023-05-13T09:51:43;12.00;;;8.68;;
62419;SDS011;48460;51.616;5.426;2023-05-13T09:54:11;15.85;;;9.15;;
62419;SDS011;48460;51.616;5.426;2023-05-13T09:56:39;11.57;;;8.02;;
62419;SDS011;48460;51.616;5.426;2023-05-13T09:59:07;14.75;;;8.15;;
62419;SDS011;48460;51.616;5.426;2023-05-13T10:01:33;11.98;;;8.05;;
62419;SDS011;48460;51.616;5.426;2023-05-13T10:04:03;13.38;;;7.78;;
62419;SDS011;48460;51.616;5.426;2023-05-13T10:06:31;13.75;;;7.82;;
62419;SDS011;48460;51.616;5.426;2023-05-13T10:08:59;18.13;;;9.00;;
62419;SDS011;48460;51.616;5.426;2023-05-13T10:11:34;16.13;;;8.18;;
62419;SDS011;48460;51.616;5.426;2023-05-13T10:14:01;11.85;;;8.07;;
62419;SDS011;48460;51.616;5.426;2023-05-13T10:16:33;13.25;;;8.13;;
62419;SDS011;48460;51.616;5.426;2023-05-13T10:18:59;12.00;;;7.22;;
62419;SDS011;48460;51.616;5.426;2023-05-13T10:21:30;10.95;;;7.47;;
62419;SDS011;48460;51.616;5.426;2023-05-13T10:23:56;14.70;;;7.53;;
62419;SDS011;48460;51.616;5.426;2023-05-13T10:26:26;8.80;;;6.75;;
62419;SDS011;48460;51.616;5.426;2023-05-13T10:28:55;14.13;;;6.65;;
62419;SDS011;48460;51.616;5.426;2023-05-13T10:31:25;10.52;;;6.93;;
62419;SDS011;48460;51.616;5.426;2023-05-13T10:33:51;12.68;;;6.78;;
62419;SDS011;48460;51.616;5.426;2023-05-13T10:39:35;11.13;;;6.60;;
62419;SDS011;48460;51.616;5.426;2023-05-13T10:42:19;9.45;;;6.22;;
62419;SDS011;48460;51.616;5.426;2023-05-13T10:45:05;14.27;;;6.50;;
62419;SDS011;48460;51.616;5.426;2023-05-13T10:47:38;14.80;;;6.80;;
62419;SDS011;48460;51.616;5.426;2023-05-13T10:50:27;11.20;;;6.80;;
62419;SDS011;48460;51.616;5.426;2023-05-13T10:52:55;10.85;;;5.65;;
62419;SDS011;48460;51.616;5.426;2023-05-13T10:55:22;7.40;;;5.38;;
62419;SDS011;48460;51.616;5.426;2023-05-13T10:58:08;10.05;;;6.18;;
62419;SDS011;48460;51.616;5.426;2023-05-13T11:00:46;12.73;;;6.22;;
62419;SDS011;48460;51.616;5.426;2023-05-13T11:03:25;8.63;;;5.45;;
62419;SDS011;48460;51.616;5.426;2023-05-13T11:08:58;9.60;;;4.53;;
62419;SDS011;48460;51.616;5.426;2023-05-13T11:11:25;8.00;;;4.50;;
62419;SDS011;48460;51.616;5.426;2023-05-13T11:14:01;7.90;;;4.60;;
62419;SDS011;48460;51.616;5.426;2023-05-13T11:16:31;10.02;;;4.60;;
62419;SDS011;48460;51.616;5.426;2023-05-13T11:19:00;13.15;;;4.60;;
62419;SDS011;48460;51.616;5.426;2023-05-13T11:21:35;7.57;;;4.10;;
62419;SDS011;48460;51.616;5.426;2023-05-13T11:24:05;11.77;;;4.60;;
62419;SDS011;48460;51.616;5.426;2023-05-13T11:26:44;8.82;;;4.60;;
62419;SDS011;48460;51.616;5.426;2023-05-13T11:29:14;7.53;;;4.43;;
62419;SDS011;48460;51.616;5.426;2023-05-13T11:31:55;7.25;;;4.20;;
62419;SDS011;48460;51.616;5.426;2023-05-13T11:34:24;8.05;;;4.00;;
62419;SDS011;48460;51.616;5.426;2023-05-13T11:37:05;6.10;;;4.03;;
62419;SDS011;48460;51.616;5.426;2023-05-13T11:39:33;12.95;;;4.18;;
62419;SDS011;48460;51.616;5.426;2023-05-13T11:42:05;7.03;;;4.03;;
62419;SDS011;48460;51.616;5.426;2023-05-13T11:44:35;7.03;;;4.30;;
62419;SDS011;48460;51.616;5.426;2023-05-13T11:47:07;8.13;;;4.00;;
62419;SDS011;48460;51.616;5.426;2023-05-13T11:49:43;9.90;;;4.60;;
62419;SDS011;48460;51.616;5.426;2023-05-13T11:52:14;9.77;;;5.00;;
62419;SDS011;48460;51.616;5.426;2023-05-13T11:54:42;11.38;;;4.43;;
62419;SDS011;48460;51.616;5.426;2023-05-13T11:57:24;10.50;;;4.07;;
62419;SDS011;48460;51.616;5.426;2023-05-13T12:00:00;7.45;;;4.13;;
62419;SDS011;48460;51.616;5.426;2023-05-13T12:02:37;14.63;;;4.80;;
62419;SDS011;48460;51.616;5.426;2023-05-13T12:05:09;8.63;;;4.07;;
62419;SDS011;48460;51.616;5.426;2023-05-13T12:07:44;10.07;;;3.90;;
62419;SDS011;48460;51.616;5.426;2023-05-13T12:10:10;5.82;;;3.63;;
62419;SDS011;48460;51.616;5.426;2023-05-13T12:12:39;9.48;;;4.22;;
62419;SDS011;48460;51.616;5.426;2023-05-13T12:15:09;9.27;;;3.72;;
62419;SDS011;48460;51.616;5.426;2023-05-13T12:17:37;7.88;;;4.10;;
62419;SDS011;48460;51.616;5.426;2023-05-13T12:20:03;7.35;;;4.25;;
62419;SDS011;48460;51.616;5.426;2023-05-13T12:22:30;9.27;;;4.00;;
62419;SDS011;48460;51.616;5.426;2023-05-13T12:25:14;8.23;;;3.85;;
62419;SDS011;48460;51.616;5.426;2023-05-13T12:30:49;9.18;;;3.97;;
62419;SDS011;48460;51.616;5.426;2023-05-13T12:33:27;6.57;;;3.88;;
62419;SDS011;48460;51.616;5.426;2023-05-13T12:36:24;11.25;;;4.00;;
62419;SDS011;48460;51.616;5.426;2023-05-13T12:39:06;7.32;;;4.00;;
62419;SDS011;48460;51.616;5.426;2023-05-13T12:41:34;8.82;;;3.90;;
62419;SDS011;48460;51.616;5.426;2023-05-13T12:44:07;9.20;;;3.70;;
62419;SDS011;48460;51.616;5.426;2023-05-13T12:46:55;9.20;;;4.05;;
62419;SDS011;48460;51.616;5.426;2023-05-13T12:49:57;6.30;;;4.00;;
62419;SDS011;48460;51.616;5.426;2023-05-13T12:52:41;12.10;;;4.00;;
62419;SDS011;48460;51.616;5.426;2023-05-13T12:55:30;9.73;;;4.10;;
62419;SDS011;48460;51.616;5.426;2023-05-13T12:58:03;5.63;;;3.95;;
62419;SDS011;48460;51.616;5.426;2023-05-13T13:00:42;5.65;;;4.00;;
62419;SDS011;48460;51.616;5.426;2023-05-13T13:06:50;7.70;;;4.20;;
62419;SDS011;48460;51.616;5.426;2023-05-13T13:09:30;20.30;;;4.28;;
62419;SDS011;48460;51.616;5.426;2023-05-13T13:11:56;11.73;;;4.03;;
62419;SDS011;48460;51.616;5.426;2023-05-13T13:14:22;7.28;;;4.10;;
62419;SDS011;48460;51.616;5.426;2023-05-13T13:16:58;12.45;;;4.07;;
62419;SDS011;48460;51.616;5.426;2023-05-13T13:19:50;6.60;;;4.10;;
62419;SDS011;48460;51.616;5.426;2023-05-13T13:22:31;5.43;;;3.90;;
62419;SDS011;48460;51.616;5.426;2023-05-13T13:24:58;7.22;;;3.75;;
62419;SDS011;48460;51.616;5.426;2023-05-13T13:28:04;9.48;;;4.00;;
62419;SDS011;48460;51.616;5.426;2023-05-13T13:38:01;9.98;;;4.10;;
62419;SDS011;48460;51.616;5.426;2023-05-13T13:51:51;7.25;;;3.58;;
62419;SDS011;48460;51.616;5.426;2023-05-13T13:54:46;7.38;;;3.78;;
62419;SDS011;48460;51.616;5.426;2023-05-13T13:57:45;7.57;;;3.65;;
62419;SDS011;48460;51.616;5.426;2023-05-13T14:00:48;9.25;;;3.80;;
62419;SDS011;48460;51.616;5.426;2023-05-13T14:03:48;6.90;;;3.92;;
62419;SDS011;48460;51.616;5.426;2023-05-13T14:07:00;10.10;;;3.60;;
62419;SDS011;48460;51.616;5.426;2023-05-13T14:10:10;6.00;;;3.80;;
62419;SDS011;48460;51.616;5.426;2023-05-13T14:12:37;9.45;;;3.80;;
62419;SDS011;48460;51.616;5.426;2023-05-13T14:15:16;9.00;;;4.13;;
62419;SDS011;48460;51.616;5.426;2023-05-13T14:17:53;9.43;;;3.78;;
62419;SDS011;48460;51.616;5.426;2023-05-13T14:20:22;8.73;;;3.78;;
62419;SDS011;48460;51.616;5.426;2023-05-13T14:23:01;7.10;;;3.90;;
62419;SDS011;48460;51.616;5.426;2023-05-13T14:25:41;9.77;;;4.00;;
62419;SDS011;48460;51.616;5.426;2023-05-13T14:28:36;7.15;;;3.75;;
62419;SDS011;48460;51.616;5.426;2023-05-13T14:31:20;11.57;;;3.88;;
62419;SDS011;48460;51.616;5.426;2023-05-13T14:36:55;7.15;;;3.85;;
62419;SDS011;48460;51.616;5.426;2023-05-13T14:39:26;13.60;;;3.92;;
62419;SDS011;48460;51.616;5.426;2023-05-13T14:41:54;8.40;;;4.07;;
62419;SDS011;48460;51.616;5.426;2023-05-13T14:44:25;11.15;;;3.83;;
62419;SDS011;48460;51.616;5.426;2023-05-13T14:47:19;6.80;;;3.67;;
62419;SDS011;48460;51.616;5.426;2023-05-13T14:54:12;10.82;;;4.00;;
62419;SDS011;48460;51.616;5.426;2023-05-13T14:57:11;5.80;;;3.88;;
62419;SDS011;48460;51.616;5.426;2023-05-13T14:59:45;10.57;;;3.70;;
62419;SDS011;48460;51.616;5.426;2023-05-13T15:02:59;7.82;;;3.70;;
62419;SDS011;48460;51.616;5.426;2023-05-13T15:06:10;7.68;;;3.92;;
62419;SDS011;48460;51.616;5.426;2023-05-13T15:08:36;7.45;;;3.75;;
62419;SDS011;48460;51.616;5.426;2023-05-13T15:11:02;7.13;;;3.85;;
62419;SDS011;48460;51.616;5.426;2023-05-13T15:13:28;6.40;;;3.47;;
62419;SDS011;48460;51.616;5.426;2023-05-13T15:15:59;6.68;;;3.60;;
62419;SDS011;48460;51.616;5.426;2023-05-13T15:18:27;8.48;;;3.28;;
62419;SDS011;48460;51.616;5.426;2023-05-13T15:20:56;4.38;;;3.20;;
62419;SDS011;48460;51.616;5.426;2023-05-13T15:23:21;7.72;;;3.50;;
62419;SDS011;48460;51.616;5.426;2023-05-13T15:25:47;7.38;;;3.50;;
62419;SDS011;48460;51.616;5.426;2023-05-13T15:28:13;9.00;;;3.65;;
62419;SDS011;48460;51.616;5.426;2023-05-13T15:30:39;7.50;;;3.60;;
62419;SDS011;48460;51.616;5.426;2023-05-13T15:33:07;6.05;;;3.40;;
62419;SDS011;48460;51.616;5.426;2023-05-13T15:35:33;12.23;;;3.67;;
62419;SDS011;48460;51.616;5.426;2023-05-13T15:37:59;8.63;;;3.30;;
62419;SDS011;48460;51.616;5.426;2023-05-13T15:40:27;9.35;;;3.85;;
62419;SDS011;48460;51.616;5.426;2023-05-13T15:42:52;11.65;;;3.80;;
62419;SDS011;48460;51.616;5.426;2023-05-13T15:45:26;5.53;;;3.50;;
62419;SDS011;48460;51.616;5.426;2023-05-13T15:47:52;8.57;;;3.70;;
62419;SDS011;48460;51.616;5.426;2023-05-13T15:50:18;11.65;;;3.72;;
62419;SDS011;48460;51.616;5.426;2023-05-13T15:52:43;8.32;;;3.70;;
62419;SDS011;48460;51.616;5.426;2023-05-13T15:55:09;8.40;;;3.95;;
62419;SDS011;48460;51.616;5.426;2023-05-13T15:57:39;6.93;;;3.80;;
62419;SDS011;48460;51.616;5.426;2023-05-13T16:00:05;8.63;;;4.05;;
62419;SDS011;48460;51.616;5.426;2023-05-13T16:02:34;7.30;;;3.92;;
62419;SDS011;48460;51.616;5.426;2023-05-13T16:05:06;9.50;;;3.50;;
62419;SDS011;48460;51.616;5.426;2023-05-13T16:07:35;8.43;;;3.92;;
62419;SDS011;48460;51.616;5.426;2023-05-13T16:10:00;9.70;;;3.90;;
62419;SDS011;48460;51.616;5.426;2023-05-13T16:12:27;14.52;;;3.95;;
62419;SDS011;48460;51.616;5.426;2023-05-13T16:14:54;12.98;;;4.28;;
62419;SDS011;48460;51.616;5.426;2023-05-13T16:17:20;9.23;;;3.72;;
62419;SDS011;48460;51.616;5.426;2023-05-13T16:19:48;7.78;;;4.00;;
62419;SDS011;48460;51.616;5.426;2023-05-13T16:22:24;7.85;;;4.00;;
62419;SDS011;48460;51.616;5.426;2023-05-13T16:24:58;8.07;;;3.83;;
62419;SDS011;48460;51.616;5.426;2023-05-13T16:27:28;5.93;;;4.00;;
62419;SDS011;48460;51.616;5.426;2023-05-13T16:29:55;9.05;;;4.15;;
62419;SDS011;48460;51.616;5.426;2023-05-13T16:32:22;7.80;;;4.03;;
62419;SDS011;48460;51.616;5.426;2023-05-13T16:34:48;10.93;;;4.18;;
62419;SDS011;48460;51.616;5.426;2023-05-13T16:37:13;7.65;;;4.03;;
62419;SDS011;48460;51.616;5.426;2023-05-13T16:39:39;7.78;;;4.00;;
62419;SDS011;48460;51.616;5.426;2023-05-13T16:42:05;8.95;;;3.92;;
62419;SDS011;48460;51.616;5.426;2023-05-13T16:44:36;8.52;;;3.60;;
62419;SDS011;48460;51.616;5.426;2023-05-13T16:47:05;5.93;;;4.07;;
62419;SDS011;48460;51.616;5.426;2023-05-13T16:49:36;7.72;;;3.80;;
62419;SDS011;48460;51.616;5.426;2023-05-13T16:52:02;9.02;;;4.70;;
62419;SDS011;48460;51.616;5.426;2023-05-13T16:54:28;10.25;;;4.20;;
62419;SDS011;48460;51.616;5.426;2023-05-13T16:56:57;7.18;;;4.00;;
62419;SDS011;48460;51.616;5.426;2023-05-13T16:59:24;8.30;;;4.25;;
62419;SDS011;48460;51.616;5.426;2023-05-13T17:01:50;7.40;;;3.90;;
62419;SDS011;48460;51.616;5.426;2023-05-13T17:04:16;8.13;;;3.67;;
62419;SDS011;48460;51.616;5.426;2023-05-13T17:06:42;9.10;;;4.03;;
62419;SDS011;48460;51.616;5.426;2023-05-13T17:09:08;12.48;;;4.30;;
62419;SDS011;48460;51.616;5.426;2023-05-13T17:11:34;17.63;;;4.32;;
62419;SDS011;48460;51.616;5.426;2023-05-13T17:14:01;11.70;;;3.83;;
62419;SDS011;48460;51.616;5.426;2023-05-13T17:16:30;8.60;;;4.35;;
62419;SDS011;48460;51.616;5.426;2023-05-13T17:19:01;12.20;;;4.00;;
62419;SDS011;48460;51.616;5.426;2023-05-13T17:21:27;8.93;;;3.90;;
62419;SDS011;48460;51.616;5.426;2023-05-13T17:23:54;8.38;;;3.97;;
62419;SDS011;48460;51.616;5.426;2023-05-13T17:26:20;8.93;;;3.90;;
62419;SDS011;48460;51.616;5.426;2023-05-13T17:28:51;10.32;;;4.05;;
62419;SDS011;48460;51.616;5.426;2023-05-13T17:31:17;11.23;;;4.30;;
62419;SDS011;48460;51.616;5.426;2023-05-13T17:33:42;11.45;;;3.95;;
62419;SDS011;48460;51.616;5.426;2023-05-13T17:36:08;9.68;;;3.72;;
62419;SDS011;48460;51.616;5.426;2023-05-13T17:38:34;6.75;;;4.18;;
62419;SDS011;48460;51.616;5.426;2023-05-13T17:41:00;7.72;;;4.10;;
62419;SDS011;48460;51.616;5.426;2023-05-13T17:43:26;11.27;;;3.95;;
62419;SDS011;48460;51.616;5.426;2023-05-13T17:45:51;7.38;;;3.90;;
62419;SDS011;48460;51.616;5.426;2023-05-13T17:48:20;7.70;;;4.18;;
62419;SDS011;48460;51.616;5.426;2023-05-13T17:50:53;9.05;;;3.80;;
62419;SDS011;48460;51.616;5.426;2023-05-13T17:53:21;6.75;;;3.97;;
62419;SDS011;48460;51.616;5.426;2023-05-13T17:55:49;7.25;;;4.10;;
62419;SDS011;48460;51.616;5.426;2023-05-13T17:58:14;7.90;;;3.80;;
62419;SDS011;48460;51.616;5.426;2023-05-13T18:00:40;7.05;;;3.95;;
62419;SDS011;48460;51.616;5.426;2023-05-13T18:03:07;5.90;;;3.70;;
62419;SDS011;48460;51.616;5.426;2023-05-13T18:05:43;8.57;;;3.92;;
62419;SDS011;48460;51.616;5.426;2023-05-13T18:08:09;11.75;;;3.95;;
62419;SDS011;48460;51.616;5.426;2023-05-13T18:10:35;6.20;;;4.10;;
62419;SDS011;48460;51.616;5.426;2023-05-13T18:13:00;6.20;;;3.80;;
62419;SDS011;48460;51.616;5.426;2023-05-13T18:15:26;9.50;;;3.97;;
62419;SDS011;48460;51.616;5.426;2023-05-13T18:17:53;9.45;;;4.13;;
62419;SDS011;48460;51.616;5.426;2023-05-13T18:20:18;8.20;;;4.10;;
62419;SDS011;48460;51.616;5.426;2023-05-13T18:22:44;8.18;;;4.00;;
62419;SDS011;48460;51.616;5.426;2023-05-13T18:25:13;8.68;;;4.20;;
62419;SDS011;48460;51.616;5.426;2023-05-13T18:27:39;9.25;;;4.10;;
62419;SDS011;48460;51.616;5.426;2023-05-13T18:30:05;9.98;;;4.30;;
62419;SDS011;48460;51.616;5.426;2023-05-13T18:32:31;5.63;;;3.90;;
62419;SDS011;48460;51.616;5.426;2023-05-13T18:35:02;10.48;;;4.30;;
62419;SDS011;48460;51.616;5.426;2023-05-13T18:37:29;6.43;;;4.22;;
62419;SDS011;48460;51.616;5.426;2023-05-13T18:39:55;8.35;;;4.20;;
62419;SDS011;48460;51.616;5.426;2023-05-13T18:42:22;9.55;;;4.32;;
62419;SDS011;48460;51.616;5.426;2023-05-13T18:44:50;12.63;;;4.38;;
62419;SDS011;48460;51.616;5.426;2023-05-13T18:47:16;8.38;;;4.75;;
62419;SDS011;48460;51.616;5.426;2023-05-13T18:49:42;9.05;;;4.90;;